Time;durP1;ratioP1;P1;durP2;ratioP2;P2;SDS_P1;SDS_P2;PMS_P1;PMS_P2;Temp;Humidity;BMP_temperature;BMP_pressure;BME280_temperature;BME280_humidity;BME280_pressure;Samples;Min_cycle;Max_cycle;Signal;HPM_P1;HPM_P2
2022/04/30 00:00:45;;;;;;;;;;;6.80;99.90;;;;;;5114977;28;19924;-59
2022/04/30 00:03:10;;;;;;;;;;;6.90;99.90;;;;;;5115143;28;20297;-59
2022/04/30 00:05:36;;;;;;;;;;;6.90;99.90;;;;;;5098018;28;20278;-59
2022/04/30 00:08:04;;;;;;;;;;;6.90;99.90;;;;;;5115771;28;19924;-59
2022/04/30 00:10:30;;;;;;;;;;;6.80;99.90;;;;;;5115513;28;19923;-59
2022/04/30 00:12:56;;;;;;;;;;;6.80;99.90;;;;;;5097739;28;20382;-60
2022/04/30 00:15:22;;;;;;;;;;;6.80;99.90;;;;;;5115341;28;19952;-59
2022/04/30 00:17:47;;;;;;;;;;;7.30;99.90;;;;;;5097486;28;19924;-59
2022/04/30 00:20:13;;;;;;;;;;;6.80;99.90;;;;;;5116003;28;19977;-59
2022/04/30 00:22:39;;;;;;;;;;;6.80;99.90;;;;;;5115132;27;19923;-59
2022/04/30 00:25:05;;;;;;;;;;;6.80;99.90;;;;;;5136750;27;19931;-59
2022/04/30 00:27:31;;;;;;;;;;;6.80;99.90;;;;;;5119547;27;20285;-59
2022/04/30 00:29:58;;;;;;;;;;;6.90;99.90;;;;;;5114746;28;19924;-59
2022/04/30 00:32:24;;;;;;;;;;;6.80;99.90;;;;;;5116099;28;19924;-60
2022/04/30 00:34:49;;;;;;;;;;;6.80;99.90;;;;;;5115336;28;19930;-59
2022/04/30 00:37:15;;;;;;;;;;;6.80;99.90;;;;;;5115047;28;20015;-59
2022/04/30 00:39:41;;;;;;;;;;;7.00;99.90;;;;;;5115674;28;19974;-59
2022/04/30 00:42:10;;;;;;;;;;;7.20;99.90;;;;;;5115856;28;19927;-59
2022/04/30 00:44:35;;;;;;;;;;;6.70;99.90;;;;;;5114651;28;19924;-59
2022/04/30 00:47:01;;;;;;;;;;;6.90;99.90;;;;;;5097244;28;19931;-59
2022/04/30 00:49:26;;;;;;;;;;;6.60;99.90;;;;;;5115094;28;20401;-60
2022/04/30 00:51:52;;;;;;;;;;;6.60;99.90;;;;;;5096303;28;19924;-59
2022/04/30 00:54:20;;;;;;;;;;;6.60;99.90;;;;;;5115345;28;19935;-59
2022/04/30 00:56:52;;;;;;;;;;;6.60;99.90;;;;;;5115340;28;19978;-59
2022/04/30 00:59:19;;;;;;;;;;;6.60;99.90;;;;;;5114484;28;19949;-59
2022/04/30 01:01:45;;;;;;;;;;;6.60;99.90;;;;;;5114764;28;19924;-59
2022/04/30 01:04:12;;;;;;;;;;;6.90;99.90;;;;;;5115390;28;19923;-59
2022/04/30 01:06:47;;;;;;;;;;;6.60;99.90;;;;;;5114379;28;20012;-59
2022/04/30 01:09:13;;;;;;;;;;;6.70;99.90;;;;;;5114987;28;19924;-59
2022/04/30 01:11:39;;;;;;;;;;;6.60;99.90;;;;;;5113940;28;19927;-59
2022/04/30 01:14:04;;;;;;;;;;;6.60;99.90;;;;;;5114145;28;19931;-59
2022/04/30 01:16:30;;;;;;;;;;;6.60;99.90;;;;;;5114831;28;19931;-59
2022/04/30 01:18:56;;;;;;;;;;;6.60;99.90;;;;;;5095965;28;20007;-59
2022/04/30 01:21:22;;;;;;;;;;;6.60;99.90;;;;;;5114720;28;19931;-59
2022/04/30 01:23:48;;;;;;;;;;;6.60;99.90;;;;;;5124695;27;20400;-59
2022/04/30 01:26:14;;;;;;;;;;;6.60;99.90;;;;;;5116481;27;19923;-59
2022/04/30 01:28:43;;;;;;;;;;;6.50;99.90;;;;;;5106225;28;19923;-59
2022/04/30 01:37:22;;;;;;;;;;;6.50;99.90;;;;;;5114630;28;19928;-59
2022/04/30 01:39:27;;;;;;;;;;;6.40;99.90;;;;;;5114793;28;19970;-59
2022/04/30 01:41:53;;;;;;;;;;;6.40;99.90;;;;;;5114005;28;19970;-59
2022/04/30 01:44:19;;;;;;;;;;;6.80;99.90;;;;;;5114302;28;19931;-59
2022/04/30 01:46:46;;;;;;;;;;;6.40;99.90;;;;;;5113670;28;19930;-59
2022/04/30 01:49:15;;;;;;;;;;;6.50;99.90;;;;;;5095754;28;19931;-59
2022/04/30 01:51:49;;;;;;;;;;;6.80;99.90;;;;;;5113866;28;19930;-59
2022/04/30 01:54:15;;;;;;;;;;;6.40;99.90;;;;;;5113419;28;19979;-59
2022/04/30 01:56:40;;;;;;;;;;;6.40;99.90;;;;;;5114321;28;19955;-59
2022/04/30 01:59:12;;;;;;;;;;;6.40;99.90;;;;;;5095922;28;19923;-59
2022/04/30 02:01:37;;;;;;;;;;;6.40;99.90;;;;;;5078144;28;19920;-59
2022/04/30 02:04:04;;;;;;;;;;;6.20;99.90;;;;;;5113650;28;19923;-59
2022/04/30 02:06:30;;;;;;;;;;;6.20;99.90;;;;;;5095483;28;20386;-59
2022/04/30 02:08:56;;;;;;;;;;;6.20;99.90;;;;;;5113337;28;19927;-59
2022/04/30 02:11:22;;;;;;;;;;;6.20;99.90;;;;;;5113997;28;19968;-59
2022/04/30 02:13:52;;;;;;;;;;;6.10;99.90;;;;;;5113153;28;19931;-59
2022/04/30 02:16:21;;;;;;;;;;;6.10;99.90;;;;;;5113299;28;19928;-59
2022/04/30 02:18:47;;;;;;;;;;;6.20;99.90;;;;;;5114117;28;19923;-59
2022/04/30 02:21:16;;;;;;;;;;;6.20;99.90;;;;;;5113402;28;19928;-59
2022/04/30 02:23:42;;;;;;;;;;;6.10;99.90;;;;;;5103140;28;20369;-59
2022/04/30 02:26:09;;;;;;;;;;;6.10;99.90;;;;;;5132761;27;20370;-59
2022/04/30 02:28:36;;;;;;;;;;;6.30;99.90;;;;;;5133811;27;19991;-59
2022/04/30 02:31:02;;;;;;;;;;;6.30;99.90;;;;;;5101465;28;19968;-59
2022/04/30 02:33:27;;;;;;;;;;;6.20;99.90;;;;;;5113605;28;19919;-59
2022/04/30 02:35:53;;;;;;;;;;;6.20;99.90;;;;;;5094626;28;19930;-59
2022/04/30 02:38:19;;;;;;;;;;;6.20;99.90;;;;;;5113514;28;19926;-59
2022/04/30 02:40:45;;;;;;;;;;;6.20;99.90;;;;;;5113794;28;19924;-59
2022/04/30 02:43:11;;;;;;;;;;;6.40;99.90;;;;;;5112610;28;19924;-59
2022/04/30 02:45:38;;;;;;;;;;;6.20;99.90;;;;;;5113753;28;19959;-59
2022/04/30 02:48:06;;;;;;;;;;;6.20;99.90;;;;;;5113099;28;19924;-59
2022/04/30 02:50:33;;;;;;;;;;;6.20;99.90;;;;;;5094006;28;20408;-59
2022/04/30 02:52:59;;;;;;;;;;;6.20;99.90;;;;;;5095361;28;19935;-59
2022/04/30 02:55:24;;;;;;;;;;;6.20;99.90;;;;;;5113577;28;19927;-59
2022/04/30 03:00:39;;;;;;;;;;;6.30;99.90;;;;;;5113659;28;19931;-59
2022/04/30 03:03:18;;;;;;;;;;;6.30;99.90;;;;;;5095325;28;20400;-59
2022/04/30 03:05:44;;;;;;;;;;;6.20;99.90;;;;;;5112110;28;20354;-59
2022/04/30 03:08:12;;;;;;;;;;;6.60;99.90;;;;;;5078257;28;20018;-59
2022/04/30 03:10:39;;;;;;;;;;;6.20;99.90;;;;;;5094864;28;19969;-59
2022/04/30 03:13:05;;;;;;;;;;;6.20;99.90;;;;;;5111995;28;19924;-59
2022/04/30 03:15:32;;;;;;;;;;;6.20;99.90;;;;;;5113163;28;19928;-59
2022/04/30 03:23:28;;;;;;;;;;;6.20;99.90;;;;;;5093664;28;22244;-59
2022/04/30 03:25:53;;;;;;;;;;;6.20;99.90;;;;;;5094143;28;20022;-59
2022/04/30 03:28:19;;;;;;;;;;;6.40;99.90;;;;;;5094578;28;19930;-59
2022/04/30 03:30:46;;;;;;;;;;;6.20;99.90;;;;;;5113129;28;19924;-59
2022/04/30 03:33:12;;;;;;;;;;;6.10;99.90;;;;;;5111917;28;20019;-59
2022/04/30 03:35:38;;;;;;;;;;;6.50;99.90;;;;;;5095613;28;20010;-59
2022/04/30 03:38:05;;;;;;;;;;;6.10;99.90;;;;;;5117076;28;19931;-59
2022/04/30 03:40:31;;;;;;;;;;;6.10;99.90;;;;;;5116105;28;20412;-59
2022/04/30 03:42:57;;;;;;;;;;;6.10;99.90;;;;;;5081413;28;20028;-59
2022/04/30 03:45:23;;;;;;;;;;;6.10;99.90;;;;;;5116882;28;19923;-59
2022/04/30 03:47:48;;;;;;;;;;;6.50;99.90;;;;;;5115934;28;20377;-59
2022/04/30 03:50:14;;;;;;;;;;;6.00;99.90;;;;;;5116022;28;19924;-59
2022/04/30 03:52:40;;;;;;;;;;;6.60;99.90;;;;;;5116795;28;19930;-59
2022/04/30 03:55:07;;;;;;;;;;;5.90;99.90;;;;;;5116052;28;19994;-59
2022/04/30 03:57:33;;;;;;;;;;;5.90;99.90;;;;;;5116510;28;19924;-59
2022/04/30 03:59:58;;;;;;;;;;;5.90;99.90;;;;;;5116039;28;19931;-59
2022/04/30 04:02:24;;;;;;;;;;;5.90;99.90;;;;;;5115897;28;20298;-59
2022/04/30 04:04:52;;;;;;;;;;;6.00;99.90;;;;;;5116042;28;19931;-59
2022/04/30 04:07:18;;;;;;;;;;;5.90;99.90;;;;;;5115086;28;20391;-59
2022/04/30 04:09:44;;;;;;;;;;;5.90;99.90;;;;;;5116272;28;20282;-59
2022/04/30 04:12:10;;;;;;;;;;;5.90;99.90;;;;;;5115963;28;19924;-59
2022/04/30 04:17:37;;;;;;;;;;;5.90;99.90;;;;;;5115789;28;20393;-59
2022/04/30 04:20:05;;;;;;;;;;;5.90;99.90;;;;;;5115859;28;20361;-59
2022/04/30 04:22:30;;;;;;;;;;;5.90;99.90;;;;;;5115405;28;20392;-59
2022/04/30 04:27:40;;;;;;;;;;;5.90;99.90;;;;;;5115814;28;19997;-59
2022/04/30 04:30:06;;;;;;;;;;;5.90;99.90;;;;;;5115221;28;19931;-59
2022/04/30 04:32:32;;;;;;;;;;;5.90;99.90;;;;;;5116085;28;19931;-59
2022/04/30 04:34:57;;;;;;;;;;;5.90;99.90;;;;;;5096726;28;19923;-59
2022/04/30 04:37:23;;;;;;;;;;;6.00;99.90;;;;;;5115239;28;19946;-59
2022/04/30 04:39:49;;;;;;;;;;;5.90;99.90;;;;;;5115654;28;19923;-59
2022/04/30 04:42:14;;;;;;;;;;;6.50;99.90;;;;;;5096872;28;19931;-59
2022/04/30 04:44:40;;;;;;;;;;;6.30;99.90;;;;;;5096600;28;19924;-59
2022/04/30 04:47:06;;;;;;;;;;;6.00;99.90;;;;;;5114610;28;19924;-59
2022/04/30 04:49:32;;;;;;;;;;;6.20;99.90;;;;;;5114455;28;20012;-59
2022/04/30 04:51:58;;;;;;;;;;;5.90;99.90;;;;;;5097100;28;19974;-59
2022/04/30 04:54:23;;;;;;;;;;;5.90;99.90;;;;;;5115639;28;19977;-59
2022/04/30 04:56:49;;;;;;;;;;;5.90;99.90;;;;;;5114438;28;19924;-59
2022/04/30 04:59:15;;;;;;;;;;;6.00;99.90;;;;;;5115285;28;20011;-59
2022/04/30 05:01:41;;;;;;;;;;;6.00;99.90;;;;;;5114865;28;19963;-59
2022/04/30 05:04:08;;;;;;;;;;;6.10;99.90;;;;;;5114311;28;19972;-59
2022/04/30 05:06:34;;;;;;;;;;;6.30;99.90;;;;;;5115588;28;19924;-59
2022/04/30 05:09:00;;;;;;;;;;;6.20;99.90;;;;;;5114633;28;20361;-59
2022/04/30 05:11:26;;;;;;;;;;;6.30;99.90;;;;;;5095630;28;19924;-59
2022/04/30 05:13:51;;;;;;;;;;;6.40;99.90;;;;;;5114787;28;19924;-59
2022/04/30 05:16:17;;;;;;;;;;;6.40;99.90;;;;;;5115246;28;19928;-59
2022/04/30 05:18:42;;;;;;;;;;;6.40;99.90;;;;;;5113661;28;19926;-59
2022/04/30 05:21:08;;;;;;;;;;;6.40;99.90;;;;;;5114988;28;19978;-59
2022/04/30 05:23:34;;;;;;;;;;;6.40;99.90;;;;;;5113832;27;19935;-59
2022/04/30 05:25:59;;;;;;;;;;;6.90;99.90;;;;;;5116179;27;19931;-59
2022/04/30 05:28:25;;;;;;;;;;;6.50;99.90;;;;;;5117353;27;19931;-59
2022/04/30 05:30:51;;;;;;;;;;;6.50;99.90;;;;;;5114845;28;20478;-59
2022/04/30 05:33:16;;;;;;;;;;;6.60;99.90;;;;;;5095341;28;20014;-59
2022/04/30 05:35:42;;;;;;;;;;;6.80;99.90;;;;;;5114499;28;19982;-59
2022/04/30 05:38:08;;;;;;;;;;;6.80;99.90;;;;;;5114568;28;20047;-59
2022/04/30 05:40:33;;;;;;;;;;;6.80;99.90;;;;;;5113504;28;20388;-59
2022/04/30 05:42:59;;;;;;;;;;;6.90;99.90;;;;;;5114345;28;20313;-59
2022/04/30 05:45:25;;;;;;;;;;;6.90;99.90;;;;;;5114379;28;20424;-59
2022/04/30 05:47:50;;;;;;;;;;;6.90;99.90;;;;;;5113392;28;19928;-59
2022/04/30 05:50:16;;;;;;;;;;;7.00;99.90;;;;;;5114019;28;20392;-59
2022/04/30 05:52:42;;;;;;;;;;;7.00;99.90;;;;;;5096328;28;19927;-59
2022/04/30 05:55:08;;;;;;;;;;;7.00;99.90;;;;;;5113030;28;20493;-59
2022/04/30 05:57:33;;;;;;;;;;;7.10;99.90;;;;;;5114340;28;19946;-59
2022/04/30 05:59:59;;;;;;;;;;;7.10;99.90;;;;;;5095220;28;19982;-59
2022/04/30 06:02:25;;;;;;;;;;;7.10;99.90;;;;;;5113777;28;19923;-59
2022/04/30 06:04:50;;;;;;;;;;;7.10;99.90;;;;;;5112777;28;20396;-60
2022/04/30 06:07:16;;;;;;;;;;;7.10;99.90;;;;;;5094974;28;19923;-59
2022/04/30 06:09:42;;;;;;;;;;;7.20;99.90;;;;;;5113388;28;19924;-60
2022/04/30 06:12:08;;;;;;;;;;;7.20;99.90;;;;;;5113675;28;19924;-59
2022/04/30 06:14:34;;;;;;;;;;;7.20;99.90;;;;;;5113444;28;19946;-60
2022/04/30 06:17:00;;;;;;;;;;;7.30;99.90;;;;;;5113905;28;19920;-59
2022/04/30 06:19:26;;;;;;;;;;;7.30;99.90;;;;;;5114072;28;19924;-60
2022/04/30 06:21:51;;;;;;;;;;;7.30;99.90;;;;;;5112780;28;19926;-59
2022/04/30 06:24:18;;;;;;;;;;;7.70;99.90;;;;;;5109024;27;20011;-59
2022/04/30 06:26:44;;;;;;;;;;;7.50;99.90;;;;;;5134559;27;19923;-59
2022/04/30 06:29:10;;;;;;;;;;;7.40;99.90;;;;;;5107450;28;19984;-59
2022/04/30 06:31:36;;;;;;;;;;;7.60;99.90;;;;;;5113724;28;19979;-60
2022/04/30 06:34:02;;;;;;;;;;;7.70;99.90;;;;;;5113847;28;19971;-59
2022/04/30 06:36:28;;;;;;;;;;;7.40;99.90;;;;;;5113303;28;19924;-59
2022/04/30 06:38:54;;;;;;;;;;;7.50;99.90;;;;;;5094746;28;19924;-60
2022/04/30 06:41:21;;;;;;;;;;;7.60;99.90;;;;;;5113643;28;20323;-60
2022/04/30 06:43:47;;;;;;;;;;;7.70;99.90;;;;;;5094609;28;19924;-60
2022/04/30 06:46:12;;;;;;;;;;;7.90;99.90;;;;;;5113103;28;19923;-60
2022/04/30 06:48:38;;;;;;;;;;;8.00;99.90;;;;;;5094846;28;20011;-61
2022/04/30 06:51:04;;;;;;;;;;;8.20;99.90;;;;;;5112909;28;19927;-60
2022/04/30 06:59:01;;;;;;;;;;;8.70;99.90;;;;;;5113414;28;20417;-61
2022/04/30 07:01:44;;;;;;;;;;;8.90;99.90;;;;;;5094378;28;20010;-61
2022/04/30 07:04:11;;;;;;;;;;;9.20;99.90;;;;;;5112108;28;19940;-61
2022/04/30 07:06:37;;;;;;;;;;;9.10;99.90;;;;;;5113586;28;19975;-60
2022/04/30 07:09:03;;;;;;;;;;;9.30;99.90;;;;;;5094342;28;19924;-61
2022/04/30 07:11:29;;;;;;;;;;;9.40;99.90;;;;;;5097107;28;19950;-61
2022/04/30 07:13:55;;;;;;;;;;;9.60;99.90;;;;;;5116790;28;20338;-61
2022/04/30 07:16:20;;;;;;;;;;;9.70;99.90;;;;;;5098899;28;20326;-61
2022/04/30 07:18:46;;;;;;;;;;;9.90;99.90;;;;;;5116439;28;19923;-60
2022/04/30 07:21:12;;;;;;;;;;;10.00;99.90;;;;;;5117460;28;19993;-58
2022/04/30 07:23:37;;;;;;;;;;;10.10;99.90;;;;;;5117432;27;19924;-58
2022/04/30 07:26:03;;;;;;;;;;;10.30;99.90;;;;;;5115869;28;20435;-58
2022/04/30 07:28:33;;;;;;;;;;;10.40;99.90;;;;;;5116923;28;19957;-58
2022/04/30 07:30:59;;;;;;;;;;;10.70;99.90;;;;;;5116271;28;20266;-58
2022/04/30 07:33:24;;;;;;;;;;;10.90;99.90;;;;;;5116381;28;20010;-58
2022/04/30 07:35:50;;;;;;;;;;;11.10;99.90;;;;;;5117247;28;19924;-58
2022/04/30 07:38:16;;;;;;;;;;;11.10;99.90;;;;;;5097867;28;20396;-58
2022/04/30 07:40:41;;;;;;;;;;;11.30;99.90;;;;;;5116777;28;19920;-58
2022/04/30 07:43:07;;;;;;;;;;;11.40;99.90;;;;;;5117149;28;19931;-59
2022/04/30 07:45:32;;;;;;;;;;;11.40;99.90;;;;;;5097435;28;19920;-59
2022/04/30 07:47:58;;;;;;;;;;;11.50;99.90;;;;;;5116388;28;19928;-59
2022/04/30 07:50:25;;;;;;;;;;;11.40;99.90;;;;;;5098015;28;19924;-59
2022/04/30 07:52:51;;;;;;;;;;;11.40;99.90;;;;;;5097599;28;19927;-59
2022/04/30 07:55:16;;;;;;;;;;;11.30;99.90;;;;;;5097617;28;19930;-59
2022/04/30 07:57:42;;;;;;;;;;;11.30;99.90;;;;;;5097554;28;19924;-59
2022/04/30 08:00:08;;;;;;;;;;;11.20;99.90;;;;;;5113145;28;19924;-59
2022/04/30 08:02:34;;;;;;;;;;;11.20;99.90;;;;;;5097925;28;19930;-59
2022/04/30 08:05:06;;;;;;;;;;;11.20;99.90;;;;;;5097695;28;20289;-59
2022/04/30 08:07:31;;;;;;;;;;;11.20;99.90;;;;;;5114068;28;19931;-59
2022/04/30 08:09:57;;;;;;;;;;;11.30;99.90;;;;;;5115798;28;19931;-59
2022/04/30 08:12:23;;;;;;;;;;;11.30;99.90;;;;;;5113173;28;19971;-59
2022/04/30 08:14:48;;;;;;;;;;;11.30;99.90;;;;;;5096345;28;20007;-60
2022/04/30 08:17:14;;;;;;;;;;;11.30;99.90;;;;;;5080358;28;19919;-59
2022/04/30 08:19:40;;;;;;;;;;;11.20;99.90;;;;;;5080959;28;20389;-59
2022/04/30 08:22:06;;;;;;;;;;;11.20;99.90;;;;;;5095433;28;19969;-60
2022/04/30 08:24:32;;;;;;;;;;;11.30;99.90;;;;;;5113895;27;19919;-60
2022/04/30 08:26:59;;;;;;;;;;;11.30;99.90;;;;;;5136625;27;19923;-59
2022/04/30 08:29:26;;;;;;;;;;;11.30;99.90;;;;;;5135502;27;19946;-60
2022/04/30 08:31:51;;;;;;;;;;;11.40;99.90;;;;;;5136194;27;20511;-59
2022/04/30 08:34:17;;;;;;;;;;;11.40;99.90;;;;;;5125012;27;19930;-59
2022/04/30 08:36:44;;;;;;;;;;;11.50;99.90;;;;;;5114035;28;19924;-59
2022/04/30 08:39:09;;;;;;;;;;;11.50;99.90;;;;;;5114230;28;19924;-59
2022/04/30 08:41:35;;;;;;;;;;;11.60;99.90;;;;;;5114574;28;20342;-59
2022/04/30 08:44:01;;;;;;;;;;;11.70;99.90;;;;;;5115768;28;20345;-59
2022/04/30 08:46:27;;;;;;;;;;;11.80;99.90;;;;;;5115306;28;20366;-60
2022/04/30 08:48:52;;;;;;;;;;;12.30;99.90;;;;;;5114930;28;19924;-59
2022/04/30 08:51:18;;;;;;;;;;;12.00;99.90;;;;;;5115256;28;19928;-59
2022/04/30 08:53:44;;;;;;;;;;;12.30;99.90;;;;;;5115112;28;19969;-59
2022/04/30 08:56:10;;;;;;;;;;;12.20;99.90;;;;;;5114498;28;19921;-59
2022/04/30 08:58:36;;;;;;;;;;;12.40;99.90;;;;;;5115431;28;19927;-59
2022/04/30 09:01:03;;;;;;;;;;;12.40;99.90;;;;;;5093373;28;19924;-59
2022/04/30 09:03:32;;;;;;;;;;;12.40;99.90;;;;;;5114411;28;19931;-59
2022/04/30 09:05:59;;;;;;;;;;;12.60;99.90;;;;;;5111204;28;19924;-60
2022/04/30 09:08:24;;;;;;;;;;;12.70;99.90;;;;;;5111826;28;19986;-60
2022/04/30 09:10:50;;;;;;;;;;;12.50;99.90;;;;;;5110215;28;19962;-60
2022/04/30 09:13:16;;;;;;;;;;;12.30;99.90;;;;;;5095918;28;19924;-60
2022/04/30 09:15:44;;;;;;;;;;;12.20;99.90;;;;;;5111182;28;19924;-60
2022/04/30 09:18:10;;;;;;;;;;;12.20;99.90;;;;;;5091758;28;19924;-60
2022/04/30 09:20:45;;;;;;;;;;;12.10;99.90;;;;;;5114211;28;20018;-60
2022/04/30 09:23:21;;;;;;;;;;;12.20;99.90;;;;;;5095114;28;20012;-60
2022/04/30 09:25:55;;;;;;;;;;;12.30;99.90;;;;;;5113107;28;19923;-60
2022/04/30 09:28:25;;;;;;;;;;;12.40;99.90;;;;;;5113994;28;20015;-60
2022/04/30 09:30:50;;;;;;;;;;;12.30;99.90;;;;;;5113806;28;20289;-60
2022/04/30 09:33:18;;;;;;;;;;;12.30;99.90;;;;;;5113429;28;19930;-60
2022/04/30 09:38:36;;;;;;;;;;;12.40;99.90;;;;;;5113485;28;19928;-60
2022/04/30 09:41:06;;;;;;;;;;;12.40;99.90;;;;;;5093769;28;19928;-60
2022/04/30 09:43:33;;;;;;;;;;;12.50;99.90;;;;;;5114332;28;19928;-60
2022/04/30 09:46:00;;;;;;;;;;;12.40;99.90;;;;;;5094673;28;19928;-60
2022/04/30 09:53:57;;;;;;;;;;;12.20;99.90;;;;;;5112496;28;19977;-60
2022/04/30 09:56:34;;;;;;;;;;;12.30;99.90;;;;;;5113586;28;19928;-60
2022/04/30 09:59:02;;;;;;;;;;;12.30;99.90;;;;;;5110658;28;19976;-60
2022/04/30 10:01:29;;;;;;;;;;;12.30;99.90;;;;;;5095099;28;19919;-60
2022/04/30 10:03:56;;;;;;;;;;;12.30;99.90;;;;;;5112867;28;20395;-60
2022/04/30 10:06:21;;;;;;;;;;;12.30;99.90;;;;;;5112920;28;20373;-60
2022/04/30 10:08:47;;;;;;;;;;;12.30;99.90;;;;;;5094375;28;19931;-60
2022/04/30 10:11:14;;;;;;;;;;;12.40;99.90;;;;;;5113312;28;20052;-60
2022/04/30 10:13:47;;;;;;;;;;;12.50;99.90;;;;;;5094607;28;19924;-60
2022/04/30 10:16:15;;;;;;;;;;;12.80;99.90;;;;;;5094160;28;19928;-61
2022/04/30 10:18:44;;;;;;;;;;;12.70;99.90;;;;;;5110478;28;19924;-61
2022/04/30 10:21:16;;;;;;;;;;;12.70;99.90;;;;;;5112374;28;19923;-60
2022/04/30 10:23:42;;;;;;;;;;;12.60;99.90;;;;;;5120022;27;19923;-60
2022/04/30 10:26:07;;;;;;;;;;;12.60;99.90;;;;;;5134337;27;19930;-60
2022/04/30 10:28:33;;;;;;;;;;;12.60;99.90;;;;;;5129497;27;19931;-60
2022/04/30 10:31:00;;;;;;;;;;;12.60;99.90;;;;;;5094899;28;19928;-60
2022/04/30 10:33:26;;;;;;;;;;;12.90;99.90;;;;;;5095259;28;19959;-60
2022/04/30 10:36:02;;;;;;;;;;;12.90;99.90;;;;;;5113062;28;19967;-60
2022/04/30 10:38:27;;;;;;;;;;;13.00;99.90;;;;;;5113094;28;19928;-61
2022/04/30 10:40:57;;;;;;;;;;;13.10;99.90;;;;;;5113777;28;19976;-60
2022/04/30 10:43:26;;;;;;;;;;;13.10;99.90;;;;;;5112774;28;19923;-60
2022/04/30 10:45:52;;;;;;;;;;;13.10;99.90;;;;;;5112600;28;19947;-60
2022/04/30 10:48:19;;;;;;;;;;;13.20;99.90;;;;;;5112526;28;20382;-60
2022/04/30 10:50:47;;;;;;;;;;;13.30;99.90;;;;;;5113238;28;20278;-60
2022/04/30 10:53:13;;;;;;;;;;;13.30;99.90;;;;;;5112581;28;19924;-60
2022/04/30 10:55:39;;;;;;;;;;;13.20;99.90;;;;;;5112168;28;19977;-60
2022/04/30 10:58:05;;;;;;;;;;;13.20;99.90;;;;;;5095402;28;19946;-60
2022/04/30 11:00:31;;;;;;;;;;;13.20;99.90;;;;;;5112218;28;20361;-60
2022/04/30 11:03:12;;;;;;;;;;;13.40;99.90;;;;;;5112643;28;19931;-60
2022/04/30 11:05:37;;;;;;;;;;;13.50;99.90;;;;;;5112839;28;19924;-60
2022/04/30 11:08:03;;;;;;;;;;;13.60;99.90;;;;;;5112509;28;19930;-60
2022/04/30 11:10:29;;;;;;;;;;;13.70;99.90;;;;;;5112524;28;20010;-60
2022/04/30 11:13:03;;;;;;;;;;;13.70;99.90;;;;;;5112909;28;20015;-60
2022/04/30 11:15:29;;;;;;;;;;;13.70;99.90;;;;;;5094417;28;20032;-60
2022/04/30 11:17:57;;;;;;;;;;;13.80;99.90;;;;;;5112251;28;19967;-60
2022/04/30 11:20:23;;;;;;;;;;;13.80;99.90;;;;;;5113485;28;19928;-60
2022/04/30 11:22:51;;;;;;;;;;;13.60;99.90;;;;;;5114227;28;19928;-60
2022/04/30 11:25:17;;;;;;;;;;;13.60;99.90;;;;;;5132041;28;19930;-60
2022/04/30 11:27:42;;;;;;;;;;;13.70;99.90;;;;;;5134001;28;20277;-60
2022/04/30 11:30:08;;;;;;;;;;;13.90;99.90;;;;;;5132360;28;19982;-60
2022/04/30 11:32:34;;;;;;;;;;;14.00;99.90;;;;;;5112680;28;19931;-60
2022/04/30 11:35:01;;;;;;;;;;;14.00;99.90;;;;;;5113097;28;19931;-60
2022/04/30 11:37:26;;;;;;;;;;;14.20;99.90;;;;;;5112295;28;19923;-60
2022/04/30 11:39:52;;;;;;;;;;;14.30;99.40;;;;;;5112939;28;19931;-60
2022/04/30 11:42:23;;;;;;;;;;;14.50;99.90;;;;;;5113167;28;19935;-60
2022/04/30 11:44:52;;;;;;;;;;;14.40;99.00;;;;;;5112155;28;19935;-60
2022/04/30 11:47:19;;;;;;;;;;;14.40;99.80;;;;;;5113060;28;20673;-60
2022/04/30 11:49:45;;;;;;;;;;;14.50;99.20;;;;;;5112259;28;19924;-60
2022/04/30 11:52:11;;;;;;;;;;;14.30;99.40;;;;;;5093865;28;19924;-60
2022/04/30 11:54:38;;;;;;;;;;;14.10;99.70;;;;;;5113107;28;19968;-60
2022/04/30 11:57:04;;;;;;;;;;;14.10;99.90;;;;;;5114381;28;19947;-60
2022/04/30 11:59:30;;;;;;;;;;;13.90;98.80;;;;;;5115788;28;20392;-60
2022/04/30 12:02:00;;;;;;;;;;;13.70;99.90;;;;;;5116404;28;20378;-60
2022/04/30 12:04:26;;;;;;;;;;;13.60;99.90;;;;;;5116555;28;19973;-60
2022/04/30 12:06:58;;;;;;;;;;;13.70;99.90;;;;;;5115177;28;19923;-60
2022/04/30 12:09:27;;;;;;;;;;;13.90;99.90;;;;;;5116333;28;19924;-60
2022/04/30 12:11:53;;;;;;;;;;;14.10;99.90;;;;;;5116294;28;20010;-60
2022/04/30 12:14:19;;;;;;;;;;;14.20;99.90;;;;;;5115003;28;20409;-60
2022/04/30 12:16:46;;;;;;;;;;;14.20;99.90;;;;;;5109468;28;19924;-60
2022/04/30 12:24:56;;;;;;;;;;;14.80;99.90;;;;;;5118808;27;19924;-60
2022/04/30 12:27:23;;;;;;;;;;;14.70;99.90;;;;;;5115399;28;19931;-60
2022/04/30 12:29:59;;;;;;;;;;;14.80;99.90;;;;;;5115549;28;19928;-60
2022/04/30 12:32:25;;;;;;;;;;;14.80;99.50;;;;;;5115445;28;20381;-61
2022/04/30 12:34:52;;;;;;;;;;;14.90;99.40;;;;;;5115219;28;19924;-60
2022/04/30 12:37:28;;;;;;;;;;;14.80;98.10;;;;;;5114991;28;19975;-60
2022/04/30 12:39:53;;;;;;;;;;;14.80;98.10;;;;;;5113659;28;19923;-60
2022/04/30 12:42:19;;;;;;;;;;;14.90;96.30;;;;;;5114618;28;19930;-60
2022/04/30 12:44:45;;;;;;;;;;;14.90;97.10;;;;;;5115539;28;19920;-60
2022/04/30 12:47:10;;;;;;;;;;;14.90;95.90;;;;;;5115735;28;20339;-60
2022/04/30 12:49:37;;;;;;;;;;;15.00;97.50;;;;;;5114545;28;19924;-60
2022/04/30 12:52:03;;;;;;;;;;;15.10;97.60;;;;;;5115170;28;19924;-60
2022/04/30 12:54:28;;;;;;;;;;;15.20;97.50;;;;;;5097535;28;20001;-60
2022/04/30 12:56:55;;;;;;;;;;;15.20;97.20;;;;;;5114922;28;19924;-60
2022/04/30 12:59:20;;;;;;;;;;;15.20;94.10;;;;;;5096326;28;19924;-60
2022/04/30 13:01:46;;;;;;;;;;;15.20;94.50;;;;;;5096230;28;19924;-60
2022/04/30 13:04:12;;;;;;;;;;;15.20;94.60;;;;;;5114456;28;19930;-60
2022/04/30 13:06:39;;;;;;;;;;;15.10;95.60;;;;;;5115168;28;20353;-60
2022/04/30 13:14:52;;;;;;;;;;;15.00;96.10;;;;;;5096723;28;19923;-60
2022/04/30 13:17:18;;;;;;;;;;;15.00;97.60;;;;;;5113749;28;20406;-60
2022/04/30 13:19:44;;;;;;;;;;;14.90;97.80;;;;;;5115033;28;19931;-60
2022/04/30 13:22:10;;;;;;;;;;;14.80;97.60;;;;;;5114603;28;20366;-60
2022/04/30 13:24:36;;;;;;;;;;;14.70;98.20;;;;;;5112279;27;19924;-60
2022/04/30 13:27:01;;;;;;;;;;;14.60;98.80;;;;;;5118832;27;19977;-60
2022/04/30 13:29:27;;;;;;;;;;;14.50;98.90;;;;;;5114224;28;19928;-61
2022/04/30 13:31:53;;;;;;;;;;;14.60;99.90;;;;;;5113814;28;20022;-60
2022/04/30 13:34:21;;;;;;;;;;;14.40;99.80;;;;;;5114463;28;20022;-60
2022/04/30 13:36:47;;;;;;;;;;;14.30;99.20;;;;;;5114409;28;19927;-60
2022/04/30 13:39:12;;;;;;;;;;;14.40;99.50;;;;;;5114099;28;19924;-61
2022/04/30 13:41:38;;;;;;;;;;;14.40;99.70;;;;;;5109092;28;20010;-60
2022/04/30 13:44:05;;;;;;;;;;;14.40;99.80;;;;;;5102119;28;19974;-60
2022/04/30 13:46:30;;;;;;;;;;;14.30;99.50;;;;;;5098724;28;19948;-60
2022/04/30 13:48:56;;;;;;;;;;;14.20;99.90;;;;;;5100933;28;19924;-60
2022/04/30 13:51:22;;;;;;;;;;;14.10;99.90;;;;;;5099948;28;20448;-60
2022/04/30 13:53:47;;;;;;;;;;;13.90;99.90;;;;;;5101905;28;20425;-60
2022/04/30 13:56:15;;;;;;;;;;;13.90;99.90;;;;;;5104279;28;19972;-60
2022/04/30 13:58:41;;;;;;;;;;;14.00;99.90;;;;;;5100091;28;19931;-60
2022/04/30 14:01:07;;;;;;;;;;;13.90;99.90;;;;;;5108888;28;19928;-60
2022/04/30 14:03:33;;;;;;;;;;;13.90;99.90;;;;;;5114056;28;20025;-60
2022/04/30 14:06:00;;;;;;;;;;;13.90;99.90;;;;;;5113126;28;19927;-60
2022/04/30 14:08:26;;;;;;;;;;;13.80;99.90;;;;;;5095078;28;19924;-60
2022/04/30 14:10:51;;;;;;;;;;;13.70;99.90;;;;;;5113267;28;19924;-60
2022/04/30 14:16:01;;;;;;;;;;;13.50;99.90;;;;;;5095497;28;19924;-60
2022/04/30 14:18:29;;;;;;;;;;;13.50;99.90;;;;;;5113688;28;19923;-60
2022/04/30 14:20:54;;;;;;;;;;;13.50;99.90;;;;;;5112005;28;19924;-60
2022/04/30 14:23:21;;;;;;;;;;;13.60;99.90;;;;;;5119644;27;20396;-60
2022/04/30 14:25:47;;;;;;;;;;;13.50;99.90;;;;;;5134387;27;19924;-60
2022/04/30 14:28:13;;;;;;;;;;;13.50;99.90;;;;;;5122884;27;19969;-60
2022/04/30 14:30:41;;;;;;;;;;;13.60;99.90;;;;;;5113709;28;19928;-60
2022/04/30 14:33:07;;;;;;;;;;;13.60;99.90;;;;;;5089093;28;19980;-60
2022/04/30 14:35:34;;;;;;;;;;;13.60;99.90;;;;;;5097792;28;19932;-60
2022/04/30 14:37:59;;;;;;;;;;;13.60;99.90;;;;;;5094035;28;20418;-60
2022/04/30 14:40:28;;;;;;;;;;;13.60;99.90;;;;;;5108005;28;19970;-60
2022/04/30 14:42:53;;;;;;;;;;;13.60;99.90;;;;;;5094283;28;20361;-61
2022/04/30 14:45:19;;;;;;;;;;;13.60;99.90;;;;;;5113041;28;19970;-61
2022/04/30 14:47:45;;;;;;;;;;;13.60;99.90;;;;;;5112929;28;19935;-61
2022/04/30 14:50:11;;;;;;;;;;;13.70;99.90;;;;;;5112618;28;20365;-60
2022/04/30 14:52:37;;;;;;;;;;;13.60;99.90;;;;;;5108707;28;19928;-60
2022/04/30 14:55:04;;;;;;;;;;;13.70;99.90;;;;;;5098448;28;19924;-61
2022/04/30 14:57:30;;;;;;;;;;;13.60;99.90;;;;;;5092126;28;20006;-61
2022/04/30 14:59:56;;;;;;;;;;;13.70;99.90;;;;;;5112521;28;20346;-61
2022/04/30 15:02:21;;;;;;;;;;;13.70;99.90;;;;;;5112426;28;19928;-61
2022/04/30 15:04:47;;;;;;;;;;;13.60;99.90;;;;;;5112548;28;19924;-61
2022/04/30 15:07:13;;;;;;;;;;;13.60;99.90;;;;;;5112802;28;19968;-61